createdAt,value
2022-10-05T00:02:34.319Z,8.94
2022-10-05T00:05:36.090Z,8.95
2022-10-05T00:08:37.920Z,8.88
2022-10-05T00:11:39.735Z,8.86
2022-10-05T00:14:41.911Z,8.87
2022-10-05T00:17:43.941Z,8.85
2022-10-05T00:20:47.131Z,8.88
2022-10-05T00:23:49.720Z,8.87
2022-10-05T00:26:56.920Z,8.89
2022-10-05T00:30:14.155Z,8.87
2022-10-05T00:33:17.362Z,8.84
2022-10-05T00:36:19.402Z,8.84
2022-10-05T00:39:21.191Z,8.80
2022-10-05T00:42:51.658Z,8.74
2022-10-05T00:46:07.713Z,8.73
2022-10-05T00:49:17.483Z,8.68
2022-10-05T00:52:37.207Z,8.69
2022-10-05T00:56:07.419Z,8.65
2022-10-05T00:59:29.077Z,8.62
2022-10-05T01:02:35.826Z,8.59
2022-10-05T01:06:03.167Z,8.51
2022-10-05T01:10:06.587Z,8.55
2022-10-05T01:13:48.037Z,8.48
2022-10-05T01:17:07.724Z,8.48
2022-10-05T01:20:15.271Z,8.49
2022-10-05T01:23:34.105Z,8.49
2022-10-05T01:26:54.882Z,8.51
2022-10-05T01:30:06.612Z,8.55
2022-10-05T01:33:44.018Z,8.65
2022-10-05T01:37:16.559Z,8.69
2022-10-05T01:40:21.342Z,8.72
2022-10-05T01:43:42.168Z,8.79
2022-10-05T01:46:50.534Z,8.84
2022-10-05T01:50:12.245Z,8.89
2022-10-05T01:53:32.064Z,8.92
2022-10-05T01:56:43.269Z,8.94
2022-10-05T02:00:04.011Z,8.99
2022-10-05T02:03:24.669Z,9.03
2022-10-05T02:06:33.123Z,9.06
2022-10-05T02:09:45.207Z,9.11
2022-10-05T02:12:50.548Z,9.13
2022-10-05T02:16:01.658Z,9.19
2022-10-05T02:19:27.433Z,9.17
2022-10-05T02:22:38.245Z,9.25
2022-10-05T02:25:46.165Z,9.24
2022-10-05T02:29:02.397Z,9.31
2022-10-05T02:32:10.271Z,9.33
2022-10-05T02:35:16.063Z,9.34
2022-10-05T02:38:32.620Z,9.41
2022-10-05T02:41:46.004Z,9.43
2022-10-05T02:45:26.514Z,9.50
2022-10-05T02:48:38.814Z,9.53
2022-10-05T02:51:48.003Z,9.54
2022-10-05T02:55:15.236Z,9.51
2022-10-05T02:58:23.823Z,9.58
2022-10-05T03:01:40.784Z,9.58
2022-10-05T03:04:54.612Z,9.61
2022-10-05T03:07:57.242Z,9.64
2022-10-05T03:11:33.530Z,9.66
2022-10-05T03:15:06.365Z,9.67
2022-10-05T03:18:08.733Z,9.63
2022-10-05T03:21:36.174Z,9.67
2022-10-05T03:24:53.719Z,9.65
2022-10-05T03:28:21.795Z,9.63
2022-10-05T03:31:30.251Z,9.71
2022-10-05T03:34:37.811Z,9.68
2022-10-05T03:37:45.825Z,9.49
2022-10-05T03:40:55.925Z,9.68
2022-10-05T03:44:21.329Z,9.68
2022-10-05T03:47:30.003Z,9.72
2022-10-05T03:50:41.809Z,9.72
2022-10-05T03:53:57.354Z,9.72
2022-10-05T03:57:10.559Z,9.76
2022-10-05T04:00:16.272Z,9.70
2022-10-05T04:03:35.265Z,9.75
2022-10-05T04:06:49.506Z,9.78
2022-10-05T04:09:54.651Z,9.80
2022-10-05T04:13:10.738Z,9.79
2022-10-05T04:16:25.043Z,9.87
2022-10-05T04:19:45.305Z,9.88
2022-10-05T04:23:04.997Z,9.91
2022-10-05T04:26:16.604Z,9.91
2022-10-05T04:29:36.483Z,9.99
2022-10-05T04:32:45.798Z,10.04
2022-10-05T04:36:08.887Z,10.05
2022-10-05T04:39:23.801Z,10.08
2022-10-05T04:42:36.702Z,10.09
2022-10-05T04:46:18.528Z,10.17
2022-10-05T04:49:32.509Z,10.18
2022-10-05T04:53:22.484Z,10.21
2022-10-05T04:56:34.125Z,10.25
2022-10-05T05:00:01.900Z,10.31
2022-10-05T05:03:45.262Z,10.36
2022-10-05T05:06:54.374Z,10.31
2022-10-05T05:10:18.358Z,10.29
2022-10-05T05:13:45.150Z,10.33
2022-10-05T05:17:14.108Z,10.45
2022-10-05T05:20:22.409Z,10.51
2022-10-05T05:23:43.497Z,10.59
2022-10-05T05:27:23.660Z,10.61
2022-10-05T05:30:31.710Z,10.64
2022-10-05T05:33:50.805Z,10.70
2022-10-05T05:36:55.719Z,10.67
2022-10-05T05:40:04.002Z,10.73
2022-10-05T05:43:46.346Z,10.74
2022-10-05T05:47:04.523Z,10.85
2022-10-05T05:50:13.138Z,11.02
2022-10-05T05:53:22.055Z,11.17
2022-10-05T05:56:32.652Z,11.25
2022-10-05T05:59:55.719Z,11.48
2022-10-05T06:03:24.381Z,11.70
2022-10-05T06:06:32.218Z,11.82
2022-10-05T06:09:43.385Z,12.14
2022-10-05T06:13:05.047Z,12.42
2022-10-05T06:16:31.871Z,12.41
2022-10-05T06:19:37.190Z,12.45
2022-10-05T06:22:44.781Z,12.47
2022-10-05T06:26:09.842Z,12.61
2022-10-05T06:29:22.827Z,12.61
2022-10-05T06:32:55.412Z,12.81
2022-10-05T06:36:40.127Z,13.21
2022-10-05T06:40:21.498Z,13.52
2022-10-05T06:43:48.932Z,13.66
2022-10-05T06:47:16.153Z,13.85
2022-10-05T06:51:05.560Z,13.92
2022-10-05T06:54:36.623Z,13.75
2022-10-05T06:58:01.541Z,13.69
2022-10-05T07:01:26.911Z,13.31
2022-10-05T07:04:54.568Z,13.02
2022-10-05T07:08:20.964Z,13.22
2022-10-05T07:11:28.481Z,13.17
2022-10-05T07:14:34.719Z,13.35
2022-10-05T07:18:07.472Z,13.44
2022-10-05T07:21:09.235Z,13.56
2022-10-05T07:24:13.977Z,13.80
2022-10-05T07:27:22.878Z,13.97
2022-10-05T07:30:26.623Z,13.87
2022-10-05T07:34:08.107Z,13.58
2022-10-05T07:37:36.189Z,13.41
2022-10-05T07:40:45.866Z,13.91
2022-10-05T07:44:11.647Z,14.26
2022-10-05T07:47:30.337Z,14.06
2022-10-05T07:51:06.632Z,13.93
2022-10-05T07:54:31.020Z,13.66
2022-10-05T07:57:50.605Z,13.34
2022-10-05T08:01:20.242Z,13.32
2022-10-05T08:04:42.011Z,13.07
2022-10-05T08:07:52.276Z,13.03
2022-10-05T08:11:14.486Z,13.00
2022-10-05T08:14:28.671Z,13.06
2022-10-05T08:17:53.085Z,13.04
2022-10-05T08:20:58.726Z,13.13
2022-10-05T08:24:11.065Z,13.16
2022-10-05T08:27:16.583Z,13.16
2022-10-05T08:30:19.417Z,13.13
2022-10-05T08:33:21.355Z,13.06
2022-10-05T08:36:39.123Z,13.01
2022-10-05T08:40:06.743Z,12.98
2022-10-05T08:43:35.044Z,12.96
2022-10-05T08:47:06.599Z,12.94
2022-10-05T08:50:25.942Z,12.95
2022-10-05T08:53:45.613Z,12.82
2022-10-05T08:57:17.402Z,13.01
2022-10-05T09:00:31.555Z,12.95
2022-10-05T09:04:11.058Z,13.35
2022-10-05T09:07:36.835Z,13.56
2022-10-05T09:10:57.207Z,13.46
2022-10-05T09:14:07.394Z,13.61
2022-10-05T09:17:39.353Z,13.71
2022-10-05T09:21:10.549Z,13.56
2022-10-05T09:24:12.387Z,13.49
2022-10-05T09:27:21.167Z,13.49
2022-10-05T09:30:32.095Z,13.63
2022-10-05T09:33:43.356Z,13.55
2022-10-05T09:37:06.981Z,13.43
2022-10-05T09:40:17.420Z,13.01
2022-10-05T09:43:44.249Z,13.03
2022-10-05T09:46:58.186Z,12.89
2022-10-05T09:50:32.146Z,12.85
2022-10-05T09:54:06.840Z,12.72
2022-10-05T09:57:48.183Z,12.91
2022-10-05T10:01:32.574Z,12.97
2022-10-05T10:04:53.334Z,13.12
2022-10-05T10:08:27.848Z,13.36
2022-10-05T10:11:53.582Z,13.42
2022-10-05T10:15:33.170Z,13.53
2022-10-05T10:19:03.670Z,13.59
2022-10-05T10:22:43.731Z,13.47
2022-10-05T10:26:31.542Z,13.30
2022-10-05T10:29:39.771Z,13.25
2022-10-05T10:33:11.887Z,13.23
2022-10-05T10:36:48.025Z,12.96
2022-10-05T10:40:26.179Z,13.09
2022-10-05T10:43:39.322Z,12.94
2022-10-05T10:46:59.772Z,13.12
2022-10-05T10:50:29.158Z,12.97
2022-10-05T10:54:09.295Z,13.15
2022-10-05T10:57:22.106Z,12.95
2022-10-05T11:00:33.599Z,13.09
2022-10-05T11:03:35.398Z,12.93
2022-10-05T11:07:04.382Z,12.94
2022-10-05T11:10:26.073Z,12.97
2022-10-05T11:13:44.185Z,12.89
2022-10-05T11:17:10.930Z,12.90
2022-10-05T11:20:49.799Z,12.86
2022-10-05T11:24:17.790Z,12.90
2022-10-05T11:27:34.204Z,12.94
2022-10-05T11:30:50.526Z,12.87
2022-10-05T11:34:20.394Z,13.04
2022-10-05T11:38:01.088Z,12.95
2022-10-05T11:41:51.265Z,12.85
2022-10-05T11:45:24.216Z,13.13
2022-10-05T11:48:39.027Z,13.23
2022-10-05T11:52:08.900Z,12.91
2022-10-05T11:55:43.967Z,12.80
2022-10-05T11:58:57.119Z,12.87
2022-10-05T12:02:31.360Z,12.86
2022-10-05T12:06:07.670Z,12.97
2022-10-05T12:09:21.707Z,12.93
2022-10-05T12:12:29.704Z,12.98
2022-10-05T12:15:51.215Z,12.92
2022-10-05T12:19:27.305Z,12.94
2022-10-05T12:22:43.779Z,12.93
2022-10-05T12:25:59.385Z,12.65
2022-10-05T12:29:10.241Z,12.47
2022-10-05T12:32:34.288Z,12.47
2022-10-05T12:35:55.692Z,12.50
2022-10-05T12:39:10.098Z,12.49
2022-10-05T12:42:11.857Z,12.48
2022-10-05T12:45:34.494Z,12.31
2022-10-05T12:48:50.228Z,12.17
2022-10-05T12:52:01.043Z,12.29
2022-10-05T12:55:37.992Z,12.25
2022-10-05T12:59:14.354Z,12.27
2022-10-05T13:02:19.167Z,12.43
2022-10-05T13:05:58.967Z,12.64
2022-10-05T13:09:42.555Z,12.62
2022-10-05T13:13:10.589Z,12.70
2022-10-05T13:16:54.709Z,12.67
2022-10-05T13:20:12.403Z,12.53
2022-10-05T13:23:31.471Z,12.70
2022-10-05T13:26:41.068Z,12.61
2022-10-05T13:29:58.411Z,12.72
2022-10-05T13:33:15.512Z,12.67
2022-10-05T13:36:57.931Z,12.61
2022-10-05T13:40:03.115Z,12.44
2022-10-05T13:43:40.340Z,12.32
2022-10-05T13:46:56.373Z,12.27
2022-10-05T13:50:15.862Z,12.41
2022-10-05T13:53:48.088Z,12.31
2022-10-05T13:56:56.741Z,12.24
2022-10-05T14:00:13.565Z,12.17
2022-10-05T14:03:30.692Z,12.02
2022-10-05T14:06:37.269Z,11.90
2022-10-05T14:09:48.391Z,11.78
2022-10-05T14:12:54.571Z,11.60
2022-10-05T14:16:21.220Z,11.64
2022-10-05T14:19:31.829Z,11.60
2022-10-05T14:22:41.661Z,11.54
2022-10-05T14:25:53.696Z,11.44
2022-10-05T14:29:00.769Z,11.24
2022-10-05T14:32:14.598Z,11.29
2022-10-05T14:35:22.172Z,11.22
2022-10-05T14:38:29.835Z,11.17
2022-10-05T14:41:37.377Z,11.11
2022-10-05T14:44:39.367Z,10.99
2022-10-05T14:47:51.743Z,11.02
2022-10-05T14:51:03.991Z,10.97
2022-10-05T14:54:33.430Z,10.93
2022-10-05T14:57:53.996Z,10.91
2022-10-05T15:01:11.245Z,10.65
2022-10-05T15:04:39.501Z,10.71
2022-10-05T15:07:47.914Z,10.70
2022-10-05T15:10:59.712Z,10.65
2022-10-05T15:14:06.357Z,10.64
2022-10-05T15:17:18.305Z,10.63
2022-10-05T15:20:30.734Z,10.52
2022-10-05T15:23:41.061Z,10.57
2022-10-05T15:26:54.338Z,10.66
2022-10-05T15:30:13.794Z,10.66
2022-10-05T15:33:29.975Z,10.59
2022-10-05T15:36:59.386Z,10.59
2022-10-05T15:40:28.082Z,10.61
2022-10-05T15:43:46.020Z,10.61
2022-10-05T15:46:56.516Z,10.63
2022-10-05T15:50:15.604Z,10.68
2022-10-05T15:53:42.046Z,10.69
2022-10-05T15:56:56.683Z,10.63
2022-10-05T16:00:12.226Z,10.61
2022-10-05T16:03:23.518Z,10.55
2022-10-05T16:07:19.493Z,10.45
2022-10-05T16:10:24.134Z,10.30
2022-10-05T16:13:44.047Z,10.22
2022-10-05T16:17:11.147Z,10.17
2022-10-05T16:20:35.891Z,10.11
2022-10-05T16:24:01.308Z,10.05
2022-10-05T16:27:12.442Z,10.04
2022-10-05T16:30:23.746Z,10.01
2022-10-05T16:33:58.465Z,9.97
2022-10-05T16:37:28.293Z,9.89
2022-10-05T16:41:03.825Z,9.80
2022-10-05T16:44:38.611Z,9.73
2022-10-05T16:48:15.887Z,9.66
2022-10-05T16:52:03.062Z,9.59
2022-10-05T16:55:14.035Z,9.53
2022-10-05T16:58:34.642Z,9.47
2022-10-05T17:02:01.801Z,9.41
2022-10-05T17:05:28.845Z,9.34
2022-10-05T17:09:07.217Z,9.31
2022-10-05T17:12:57.760Z,9.24
2022-10-05T17:16:27.947Z,9.19
2022-10-05T17:19:54.641Z,9.22
2022-10-05T17:23:19.354Z,9.23
2022-10-05T17:26:59.330Z,9.26
2022-10-05T17:30:32.958Z,9.27
2022-10-05T17:33:55.237Z,9.23
2022-10-05T17:37:20.324Z,9.27
2022-10-05T17:40:39.427Z,9.35
2022-10-05T17:44:13.786Z,9.40
2022-10-05T17:47:36.794Z,9.45
2022-10-05T17:51:07.239Z,9.50
2022-10-05T17:54:50.794Z,9.53
2022-10-05T17:57:53.694Z,9.54
2022-10-05T18:00:59.367Z,9.56
2022-10-05T18:04:27.019Z,9.59
2022-10-05T18:07:30.110Z,9.62
2022-10-05T18:10:35.625Z,9.65
2022-10-05T18:13:52.094Z,9.68
2022-10-05T18:17:14.517Z,9.68
2022-10-05T18:20:39.860Z,9.72
2022-10-05T18:23:59.974Z,9.73
2022-10-05T18:27:37.298Z,9.76
2022-10-05T18:31:27.025Z,9.80
2022-10-05T18:34:40.008Z,9.79
2022-10-05T18:38:13.353Z,9.81
2022-10-05T18:41:45.674Z,9.85
2022-10-05T18:45:02.489Z,9.86
2022-10-05T18:48:22.546Z,9.90
2022-10-05T18:51:40.036Z,9.86
2022-10-05T18:55:21.981Z,9.91
2022-10-05T18:58:56.595Z,9.92
2022-10-05T19:02:17.283Z,9.95
2022-10-05T19:05:53.198Z,9.98
2022-10-05T19:09:19.462Z,9.97
2022-10-05T19:12:58.232Z,9.98
2022-10-05T19:16:25.736Z,9.96
2022-10-05T19:19:49.647Z,9.96
2022-10-05T19:23:25.577Z,9.96
2022-10-05T19:27:25.999Z,9.99
2022-10-05T19:30:48.946Z,9.98
2022-10-05T19:34:15.708Z,9.96
2022-10-05T19:37:45.785Z,10.00
2022-10-05T19:41:12.974Z,9.99
2022-10-05T19:45:03.794Z,9.99
2022-10-05T19:48:36.357Z,10.00
2022-10-05T19:51:49.791Z,10.04
2022-10-05T19:55:24.117Z,10.07
2022-10-05T19:58:28.402Z,10.06
2022-10-05T20:01:34.782Z,10.09
2022-10-05T20:04:42.152Z,10.13
2022-10-05T20:07:43.998Z,10.15
2022-10-05T20:11:03.423Z,10.15
2022-10-05T20:14:06.778Z,10.15
2022-10-05T20:17:44.472Z,10.20
2022-10-05T20:20:48.643Z,10.20
2022-10-05T20:24:09.584Z,10.22
2022-10-05T20:27:41.337Z,10.24
2022-10-05T20:30:43.113Z,10.23
2022-10-05T20:33:44.862Z,10.24
2022-10-05T20:36:47.383Z,10.25
2022-10-05T20:39:51.443Z,10.24
2022-10-05T20:42:53.299Z,10.24
2022-10-05T20:45:56.800Z,10.26
2022-10-05T20:48:58.609Z,10.27
2022-10-05T20:52:00.912Z,10.27
2022-10-05T20:55:05.420Z,10.23
2022-10-05T20:58:09.028Z,10.24
2022-10-05T21:01:19.986Z,10.24
2022-10-05T21:04:24.608Z,10.26
2022-10-05T21:07:26.500Z,10.26
2022-10-05T21:10:28.205Z,10.26
2022-10-05T21:13:29.987Z,10.27
2022-10-05T21:16:31.860Z,10.25
2022-10-05T21:19:38.488Z,10.26
2022-10-05T21:22:40.491Z,10.28
2022-10-05T21:25:42.264Z,10.29
2022-10-05T21:28:44.140Z,10.29
2022-10-05T21:31:46.174Z,10.27
2022-10-05T21:34:47.989Z,10.29
2022-10-05T21:37:49.881Z,10.28
2022-10-05T21:40:51.705Z,10.29
2022-10-05T21:43:53.685Z,10.32
2022-10-05T21:46:56.632Z,10.31
2022-10-05T21:49:59.920Z,10.29
2022-10-05T21:53:04.361Z,10.29
2022-10-05T21:56:12.661Z,10.27
2022-10-05T21:59:18.758Z,10.26
2022-10-05T22:02:20.536Z,10.26
2022-10-05T22:05:22.869Z,10.27
2022-10-05T22:08:27.656Z,10.26
2022-10-05T22:11:29.828Z,10.26
2022-10-05T22:14:32.201Z,10.24
2022-10-05T22:17:34.023Z,10.25
2022-10-05T22:20:35.857Z,10.26
2022-10-05T22:23:38.915Z,10.24
2022-10-05T22:26:43.861Z,10.22
2022-10-05T22:29:46.210Z,10.22
2022-10-05T22:32:47.981Z,10.21
2022-10-05T22:35:49.884Z,10.22
2022-10-05T22:38:51.657Z,10.22
2022-10-05T22:41:53.492Z,10.23
2022-10-05T22:44:55.332Z,10.22
2022-10-05T22:47:57.120Z,10.24
2022-10-05T22:51:00.139Z,10.25
2022-10-05T22:54:01.962Z,10.23
2022-10-05T22:57:03.760Z,10.25
2022-10-05T23:00:06.925Z,10.24
2022-10-05T23:03:08.753Z,10.25
2022-10-05T23:06:13.505Z,10.24
2022-10-05T23:09:15.704Z,10.20
2022-10-05T23:12:17.547Z,10.18
2022-10-05T23:15:19.334Z,10.15
2022-10-05T23:18:21.116Z,10.13
2022-10-05T23:21:25.532Z,10.08
2022-10-05T23:24:27.262Z,10.03
2022-10-05T23:27:29.020Z,9.98
2022-10-05T23:30:31.155Z,9.95
2022-10-05T23:33:34.310Z,9.90
2022-10-05T23:36:36.105Z,9.85
2022-10-05T23:39:37.838Z,9.81
2022-10-05T23:42:41.083Z,9.79
2022-10-05T23:45:47.062Z,9.77
2022-10-05T23:48:50.424Z,9.76
2022-10-05T23:51:52.252Z,9.77
2022-10-05T23:54:54.189Z,9.78
2022-10-05T23:57:55.959Z,9.78
